This is the latest recevied weather packets stored in our database for station/object N5DGC. If no packets are shown the sender has not sent any weather packets the latest 1 day(s).
| Time | Temp. | Humidity | Pressure | Rain* | Wind** | Luminosity | Snow |
|---|---|---|---|---|---|---|---|
| 1778004421 | 13.89° C | 58% | 1231.4 hPa | 0 mm | 0.89 m/s, 344° | 393 W/m² | - |
| 1778004119 | 13.89° C | 61% | 1231.7 hPa | 0 mm | 0.45 m/s, 97° | 500 W/m² | - |
| 1778003814 | 15.56° C | 53% | 1231.7 hPa | 0 mm | 0.89 m/s, 88° | 322 W/m² | - |
| 1778003511 | 15.56° C | 43% | 1231.4 hPa | 0 mm | 0.89 m/s, 157° | 181 W/m² | - |
| 1778003208 | 15.56° C | 42% | 1231.3 hPa | 0 mm | 0.89 m/s, 47° | 143 W/m² | - |
| 1778002904 | 15.56° C | 42% | 1231.3 hPa | 0 mm | 0.89 m/s, 118° | 344 W/m² | - |
| 1778002601 | 16.11° C | 41% | 1231.3 hPa | 0 mm | 0.45 m/s, 57° | 386 W/m² | - |
| 1778002297 | 16.67° C | 40% | 1231.2 hPa | 0 mm | 0.89 m/s, 22° | 668 W/m² | - |
| 1778001995 | 16.11° C | 41% | 1231.4 hPa | 0 mm | 0 m/s | 696 W/m² | - |
| 1778001692 | 15° C | 44% | 1231.1 hPa | 0 mm | 0.89 m/s, 33° | 586 W/m² | - |
| 1778001386 | 15° C | 44% | 1231.2 hPa | 0 mm | 1.79 m/s, 344° | 423 W/m² | - |
| 1778001084 | 14.44° C | 44% | 1231.3 hPa | 0 mm | 0.45 m/s, 75° | 585 W/m² | - |
| 1778000781 | 13.89° C | 45% | 1231.4 hPa | 0 mm | 1.34 m/s, 70° | 293 W/m² | - |
| 1778000477 | 13.89° C | 45% | 1231.5 hPa | 0 mm | 1.79 m/s, 53° | 230 W/m² | - |
| 1778000172 | 13.89° C | 44% | 1231.5 hPa | 0 mm | 0.89 m/s, 84° | 132 W/m² | - |
| 1777999868 | 14.44° C | 44% | 1231.7 hPa | 0 mm | 1.34 m/s, 36° | 133 W/m² | - |
| 1777999564 | 14.44° C | 44% | 1231.4 hPa | 0 mm | 0.89 m/s, 6° | 250 W/m² | - |
| 1777999262 | 13.89° C | 45% | 1231.2 hPa | 0 mm | 0.89 m/s, 50° | 429 W/m² | - |
| 1777998960 | 13.89° C | 45% | 1231.3 hPa | 0 mm | 1.34 m/s, 344° | 277 W/m² | - |
| 1777998657 | 13.33° C | 45% | 1231.4 hPa | 0 mm | 1.34 m/s, 55° | 250 W/m² | - |
| 1777998355 | 13.33° C | 45% | 1231.5 hPa | 0 mm | 2.24 m/s, 331° | 233 W/m² | - |
| 1777998052 | 13.33° C | 47% | 1231.4 hPa | 0 mm | 1.34 m/s, 16° | 332 W/m² | - |
| 1777997749 | 12.78° C | 48% | 1231.5 hPa | 0 mm | 1.79 m/s, 7° | 445 W/m² | - |
| 1777997447 | 12.78° C | 48% | 1231.7 hPa | 0 mm | 4.02 m/s, 323° | 305 W/m² | - |
| 1777997144 | 12.22° C | 51% | 1231.7 hPa | 0 mm | 1.34 m/s, 74° | 218 W/m² | - |
* Rain latest hour (hover to see other rain measurements)
** Current wind speed in m/s (hover to see current wind gust speed)